Flight Track Log - Related Links

Times and Time Zones

All times are in EDT time to prevent confusion due to time zone crossing. See the BER6638 flight status page for this flight to view local times or setup timezone preferences in your user account.

Time Position Orientation Groundspeed Altitude Reporting Facility
EDT Latitude Longitude Course Direction KTS MPH feet Rate Location/Type
Sun 08:28:00 AM 49.4629 8.9401 39° Northeast  Level Estimated
Sun 08:29:00 AM 49.5385 9.0371 40° Northeast  Level Estimated
Sun 08:30:00 AM 49.6140 9.1344 40° Northeast  Level Estimated
Sun 08:31:00 AM 49.6894 9.2320 40° Northeast  Level Estimated
Sun 08:32:00 AM 49.7647 9.3299 40° Northeast  Level Estimated
Sun 08:33:00 AM 49.8399 9.4281 40° Northeast  Level Estimated
Sun 08:34:00 AM 49.9150 9.5266 40° Northeast  Level Estimated
Sun 08:35:00 AM 49.9901 9.6254 40° Northeast  Level Estimated
Sun 08:36:00 AM 50.0651 9.7246 40° Northeast  Level Estimated
Sun 08:37:00 AM 50.1400 9.8240 40° Northeast  Level Estimated
Sun 08:38:00 AM 50.2148 9.9237 40° Northeast  Level Estimated
Sun 08:39:00 AM 50.2895 10.0238 41° Northeast  Level Estimated
Sun 08:40:00 AM 50.3641 10.1242 41° Northeast  Level Estimated
Sun 08:41:00 AM 50.4387 10.2248 41° Northeast  Level Estimated
Sun 08:42:00 AM 50.5131 10.3258 41° Northeast  Level Estimated
Sun 08:43:00 AM 50.5875 10.4272 41° Northeast  Level Estimated
Sun 08:44:00 AM 50.6618 10.5288 41° Northeast  Level Estimated
Sun 08:45:00 AM 50.7360 10.6308 41° Northeast  Level Estimated
Sun 08:46:00 AM 50.8101 10.7331 41° Northeast  Level Estimated
Sun 08:47:00 AM 50.8841 10.8357 41° Northeast  Level Estimated
Sun 08:48:00 AM 50.9581 10.9386 41° Northeast  Level Estimated
Sun 08:49:00 AM 51.0319 11.0419 41° Northeast  Level Estimated
Sun 08:50:00 AM 51.1057 11.1455 41° Northeast  Level Estimated
Sun 08:51:00 AM 51.1793 11.2494 41° Northeast  Level Estimated
Sun 08:52:00 AM 51.2529 11.3537 42° Northeast  Level Estimated
Sun 08:53:00 AM 51.3263 11.4583 42° Northeast  Level Estimated
Sun 08:54:00 AM 51.3997 11.5632 42° Northeast  Level Estimated
Sun 08:55:00 AM 51.4730 11.6685 42° Northeast  Level Estimated
Sun 08:56:00 AM 51.5462 11.7741 42° Northeast  Level Estimated
Sun 08:57:00 AM 51.6193 11.8801 42° Northeast  Level Estimated
Sun 08:58:00 AM 51.6923 11.9864 42° Northeast  Level Estimated
Sun 08:59:00 AM 51.7652 12.0930 42° Northeast  Level Estimated
Sun 09:00:00 AM 51.8380 12.2000 42° Northeast  Level Estimated
Sun 09:01:00 AM 51.9107 12.3073 42° Northeast  Level Estimated
Sun 09:02:00 AM 51.9833 12.4150 42° Northeast  Level Estimated
Sun 09:03:00 AM 52.0558 12.5230 42° Northeast  Level Estimated
Sun 09:04:00 AM 52.1282 12.6313 43° Northeast  Level Estimated
Sun 09:05:00 AM 52.2005 12.7401 43° Northeast  Level Estimated
Sun 09:06:00 AM 52.2727 12.8491 43° Northeast  Level Estimated
Sun 09:07:00 AM 52.3448 12.9586 43° Northeast  Level Estimated
Sun 09:08:00 AM 52.4169 13.0684 43° Northeast  Level Estimated
Sun 09:09:00 AM 52.4888 13.1785 43° Northeast  Level Estimated
Sun 09:10:00 AM 52.5597 13.2877 43° Northeast  Level Estimated
Sun 09:11:00 AM 52.5597 13.2877 171° South  Level Estimated
Sun 09:12:00 AM 52.5597 13.2877 171° South  Level Estimated
Sun 09:13:00 AM 52.5597 13.2877 171° South  Level Estimated
Sun 09:14:00 AM 52.5597 13.2877 171° South  Level Estimated
Sun 09:15:00 AM 52.5597 13.2877 171° South  Level Estimated
Sun 09:16:00 AM 52.5597 13.2877 171° South  Level Estimated
Sun 09:17:00 AM 52.5597 13.2877 171° South  Level Estimated
Sun 09:18:00 AM 52.5597 13.2877 171° South  Level Estimated
Sun 09:19:00 AM 52.5597 13.2877 171° South  Level Estimated
Sun 09:20:00 AM 52.5597 13.2877 171° South  Level Estimated
Sun 09:21:00 AM 52.5597 13.2877 171° South  Level Estimated
Sun 09:22:00 AM 52.5597 13.2877 171° South  Level Estimated
Sun 09:23:00 AM 52.5597 13.2877 171° South  Level Estimated
Sun 09:24:00 AM 52.5597 13.2877 171° South  Level Estimated
Sun 09:25:00 AM 52.5597 13.2877 171° South  Level Estimated

Login

Don't have an account? Register now (free) for customized features, flight alerts, and more!